sensor_id;sensor_type;location;lat;lon;timestamp;P1;durP1;ratioP1;P2;durP2;ratioP2
27706;SDS011;36332;51.384;0.040;2022-07-29T00:01:55;13.00;;;3.63;;
27706;SDS011;36332;51.384;0.040;2022-07-29T00:04:24;16.08;;;4.53;;
27706;SDS011;36332;51.384;0.040;2022-07-29T00:06:55;12.88;;;5.03;;
27706;SDS011;36332;51.384;0.040;2022-07-29T00:09:23;12.15;;;4.15;;
27706;SDS011;36332;51.384;0.040;2022-07-29T00:11:51;10.88;;;4.82;;
27706;SDS011;36332;51.384;0.040;2022-07-29T00:14:20;13.13;;;4.78;;
27706;SDS011;36332;51.384;0.040;2022-07-29T00:16:47;11.15;;;4.90;;
27706;SDS011;36332;51.384;0.040;2022-07-29T00:19:15;11.82;;;4.40;;
27706;SDS011;36332;51.384;0.040;2022-07-29T00:21:43;15.18;;;3.97;;
27706;SDS011;36332;51.384;0.040;2022-07-29T00:24:12;7.95;;;4.55;;
27706;SDS011;36332;51.384;0.040;2022-07-29T00:26:40;16.45;;;5.72;;
27706;SDS011;36332;51.384;0.040;2022-07-29T00:29:08;12.23;;;5.18;;
27706;SDS011;36332;51.384;0.040;2022-07-29T00:31:55;11.32;;;5.38;;
27706;SDS011;36332;51.384;0.040;2022-07-29T00:34:23;12.68;;;4.20;;
27706;SDS011;36332;51.384;0.040;2022-07-29T00:37:13;11.32;;;3.22;;
27706;SDS011;36332;51.384;0.040;2022-07-29T00:39:41;20.58;;;3.78;;
27706;SDS011;36332;51.384;0.040;2022-07-29T00:42:09;11.90;;;4.38;;
27706;SDS011;36332;51.384;0.040;2022-07-29T00:44:40;7.85;;;3.55;;
27706;SDS011;36332;51.384;0.040;2022-07-29T00:47:09;13.75;;;4.03;;
27706;SDS011;36332;51.384;0.040;2022-07-29T00:49:38;12.95;;;3.67;;
27706;SDS011;36332;51.384;0.040;2022-07-29T00:52:09;11.40;;;4.55;;
27706;SDS011;36332;51.384;0.040;2022-07-29T00:54:43;8.05;;;3.78;;
27706;SDS011;36332;51.384;0.040;2022-07-29T00:57:11;8.25;;;3.80;;
27706;SDS011;36332;51.384;0.040;2022-07-29T00:59:39;9.20;;;3.90;;
27706;SDS011;36332;51.384;0.040;2022-07-29T01:02:07;17.13;;;3.63;;
27706;SDS011;36332;51.384;0.040;2022-07-29T01:04:35;6.97;;;3.40;;
27706;SDS011;36332;51.384;0.040;2022-07-29T01:07:03;9.77;;;3.45;;
27706;SDS011;36332;51.384;0.040;2022-07-29T01:09:32;8.55;;;3.28;;
27706;SDS011;36332;51.384;0.040;2022-07-29T01:12:23;10.32;;;3.17;;
27706;SDS011;36332;51.384;0.040;2022-07-29T01:14:55;8.60;;;2.95;;
27706;SDS011;36332;51.384;0.040;2022-07-29T01:20:17;18.15;;;3.53;;
27706;SDS011;36332;51.384;0.040;2022-07-29T01:28:58;11.15;;;3.33;;
27706;SDS011;36332;51.384;0.040;2022-07-29T01:37:43;7.53;;;2.90;;
27706;SDS011;36332;51.384;0.040;2022-07-29T01:43:11;6.15;;;2.90;;
27706;SDS011;36332;51.384;0.040;2022-07-29T01:45:44;9.45;;;3.05;;
27706;SDS011;36332;51.384;0.040;2022-07-29T01:48:24;11.52;;;3.88;;
27706;SDS011;36332;51.384;0.040;2022-07-29T01:51:04;15.02;;;2.78;;
27706;SDS011;36332;51.384;0.040;2022-07-29T01:56:11;10.63;;;3.45;;
27706;SDS011;36332;51.384;0.040;2022-07-29T01:58:41;9.88;;;2.88;;
27706;SDS011;36332;51.384;0.040;2022-07-29T02:01:11;5.93;;;2.63;;
27706;SDS011;36332;51.384;0.040;2022-07-29T02:03:41;7.90;;;2.83;;
27706;SDS011;36332;51.384;0.040;2022-07-29T02:06:11;9.27;;;3.05;;
27706;SDS011;36332;51.384;0.040;2022-07-29T02:08:40;10.55;;;3.20;;
27706;SDS011;36332;51.384;0.040;2022-07-29T02:11:09;4.55;;;2.92;;
27706;SDS011;36332;51.384;0.040;2022-07-29T02:13:37;4.88;;;2.55;;
27706;SDS011;36332;51.384;0.040;2022-07-29T02:16:06;12.85;;;3.20;;
27706;SDS011;36332;51.384;0.040;2022-07-29T02:18:36;12.73;;;3.08;;
27706;SDS011;36332;51.384;0.040;2022-07-29T02:21:06;12.57;;;3.13;;
27706;SDS011;36332;51.384;0.040;2022-07-29T02:23:41;13.30;;;3.40;;
27706;SDS011;36332;51.384;0.040;2022-07-29T02:26:18;21.38;;;3.63;;
27706;SDS011;36332;51.384;0.040;2022-07-29T02:28:48;13.82;;;3.70;;
27706;SDS011;36332;51.384;0.040;2022-07-29T02:31:18;7.57;;;2.83;;
27706;SDS011;36332;51.384;0.040;2022-07-29T02:33:51;14.50;;;3.58;;
27706;SDS011;36332;51.384;0.040;2022-07-29T02:36:21;10.07;;;2.80;;
27706;SDS011;36332;51.384;0.040;2022-07-29T02:38:50;8.95;;;2.95;;
27706;SDS011;36332;51.384;0.040;2022-07-29T02:41:22;7.40;;;2.90;;
27706;SDS011;36332;51.384;0.040;2022-07-29T02:44:09;8.85;;;2.90;;
27706;SDS011;36332;51.384;0.040;2022-07-29T02:46:49;9.93;;;2.30;;
27706;SDS011;36332;51.384;0.040;2022-07-29T02:49:31;9.35;;;3.35;;
27706;SDS011;36332;51.384;0.040;2022-07-29T02:52:06;10.03;;;3.13;;
27706;SDS011;36332;51.384;0.040;2022-07-29T02:54:49;8.25;;;3.28;;
27706;SDS011;36332;51.384;0.040;2022-07-29T02:59:56;14.57;;;3.53;;
27706;SDS011;36332;51.384;0.040;2022-07-29T03:02:26;10.00;;;3.28;;
27706;SDS011;36332;51.384;0.040;2022-07-29T03:04:58;11.23;;;3.25;;
27706;SDS011;36332;51.384;0.040;2022-07-29T03:07:28;9.13;;;3.53;;
27706;SDS011;36332;51.384;0.040;2022-07-29T03:09:57;8.82;;;4.05;;
27706;SDS011;36332;51.384;0.040;2022-07-29T03:12:26;13.13;;;4.00;;
27706;SDS011;36332;51.384;0.040;2022-07-29T03:14:54;7.63;;;3.45;;
27706;SDS011;36332;51.384;0.040;2022-07-29T03:17:22;6.32;;;3.22;;
27706;SDS011;36332;51.384;0.040;2022-07-29T03:19:51;7.55;;;3.70;;
27706;SDS011;36332;51.384;0.040;2022-07-29T03:22:20;9.88;;;3.75;;
27706;SDS011;36332;51.384;0.040;2022-07-29T03:24:51;14.10;;;3.30;;
27706;SDS011;36332;51.384;0.040;2022-07-29T03:27:19;8.75;;;3.40;;
27706;SDS011;36332;51.384;0.040;2022-07-29T03:29:47;13.45;;;4.63;;
27706;SDS011;36332;51.384;0.040;2022-07-29T03:32:16;6.05;;;3.72;;
27706;SDS011;36332;51.384;0.040;2022-07-29T03:34:51;9.18;;;4.03;;
27706;SDS011;36332;51.384;0.040;2022-07-29T03:37:18;11.63;;;3.83;;
27706;SDS011;36332;51.384;0.040;2022-07-29T03:39:48;9.18;;;4.35;;
27706;SDS011;36332;51.384;0.040;2022-07-29T03:42:19;9.80;;;4.38;;
27706;SDS011;36332;51.384;0.040;2022-07-29T03:44:50;10.65;;;4.40;;
27706;SDS011;36332;51.384;0.040;2022-07-29T03:47:20;7.25;;;3.67;;
27706;SDS011;36332;51.384;0.040;2022-07-29T03:50:13;13.73;;;4.53;;
27706;SDS011;36332;51.384;0.040;2022-07-29T03:52:43;12.73;;;4.63;;
27706;SDS011;36332;51.384;0.040;2022-07-29T03:55:13;12.48;;;4.55;;
27706;SDS011;36332;51.384;0.040;2022-07-29T03:57:42;10.25;;;5.03;;
27706;SDS011;36332;51.384;0.040;2022-07-29T04:00:11;8.98;;;4.47;;
27706;SDS011;36332;51.384;0.040;2022-07-29T04:02:40;7.10;;;4.25;;
27706;SDS011;36332;51.384;0.040;2022-07-29T04:05:12;8.40;;;4.05;;
27706;SDS011;36332;51.384;0.040;2022-07-29T04:07:44;6.88;;;3.78;;
27706;SDS011;36332;51.384;0.040;2022-07-29T04:10:13;9.70;;;4.50;;
27706;SDS011;36332;51.384;0.040;2022-07-29T04:12:58;10.63;;;4.10;;
27706;SDS011;36332;51.384;0.040;2022-07-29T04:15:26;8.15;;;4.18;;
27706;SDS011;36332;51.384;0.040;2022-07-29T04:17:58;7.00;;;4.10;;
27706;SDS011;36332;51.384;0.040;2022-07-29T04:20:27;9.70;;;4.22;;
27706;SDS011;36332;51.384;0.040;2022-07-29T04:22:54;11.98;;;4.60;;
27706;SDS011;36332;51.384;0.040;2022-07-29T04:25:22;7.72;;;3.70;;
27706;SDS011;36332;51.384;0.040;2022-07-29T04:27:50;11.38;;;3.75;;
27706;SDS011;36332;51.384;0.040;2022-07-29T04:30:30;10.48;;;4.18;;
27706;SDS011;36332;51.384;0.040;2022-07-29T04:33:03;14.48;;;4.13;;
27706;SDS011;36332;51.384;0.040;2022-07-29T04:35:36;7.50;;;4.22;;
27706;SDS011;36332;51.384;0.040;2022-07-29T04:38:16;10.60;;;3.65;;
27706;SDS011;36332;51.384;0.040;2022-07-29T04:40:44;10.82;;;4.88;;
27706;SDS011;36332;51.384;0.040;2022-07-29T04:43:16;10.20;;;3.88;;
27706;SDS011;36332;51.384;0.040;2022-07-29T04:45:49;15.88;;;4.65;;
27706;SDS011;36332;51.384;0.040;2022-07-29T04:48:17;6.90;;;3.55;;
27706;SDS011;36332;51.384;0.040;2022-07-29T04:50:45;9.15;;;4.20;;
27706;SDS011;36332;51.384;0.040;2022-07-29T04:53:13;8.43;;;3.72;;
27706;SDS011;36332;51.384;0.040;2022-07-29T04:55:43;13.98;;;4.20;;
27706;SDS011;36332;51.384;0.040;2022-07-29T04:58:12;8.88;;;4.03;;
27706;SDS011;36332;51.384;0.040;2022-07-29T05:00:39;8.85;;;4.63;;
27706;SDS011;36332;51.384;0.040;2022-07-29T05:03:07;8.70;;;4.00;;
27706;SDS011;36332;51.384;0.040;2022-07-29T05:05:35;13.95;;;3.95;;
27706;SDS011;36332;51.384;0.040;2022-07-29T05:08:03;7.63;;;4.07;;
27706;SDS011;36332;51.384;0.040;2022-07-29T05:10:31;11.90;;;4.50;;
27706;SDS011;36332;51.384;0.040;2022-07-29T05:12:59;11.35;;;3.97;;
27706;SDS011;36332;51.384;0.040;2022-07-29T05:15:27;9.25;;;3.97;;
27706;SDS011;36332;51.384;0.040;2022-07-29T05:17:55;10.13;;;4.50;;
27706;SDS011;36332;51.384;0.040;2022-07-29T05:20:23;8.90;;;3.83;;
27706;SDS011;36332;51.384;0.040;2022-07-29T05:22:55;9.75;;;3.70;;
27706;SDS011;36332;51.384;0.040;2022-07-29T05:25:28;19.73;;;5.50;;
27706;SDS011;36332;51.384;0.040;2022-07-29T05:28:10;14.45;;;5.32;;
27706;SDS011;36332;51.384;0.040;2022-07-29T05:30:39;10.30;;;3.85;;
27706;SDS011;36332;51.384;0.040;2022-07-29T05:33:07;10.57;;;4.25;;
27706;SDS011;36332;51.384;0.040;2022-07-29T05:35:56;8.63;;;4.30;;
27706;SDS011;36332;51.384;0.040;2022-07-29T05:38:27;8.65;;;4.75;;
27706;SDS011;36332;51.384;0.040;2022-07-29T05:40:56;6.82;;;4.22;;
27706;SDS011;36332;51.384;0.040;2022-07-29T05:43:28;6.68;;;3.65;;
27706;SDS011;36332;51.384;0.040;2022-07-29T05:45:59;10.77;;;3.88;;
27706;SDS011;36332;51.384;0.040;2022-07-29T05:48:27;8.98;;;4.20;;
27706;SDS011;36332;51.384;0.040;2022-07-29T05:50:55;8.75;;;4.03;;
27706;SDS011;36332;51.384;0.040;2022-07-29T05:53:23;9.88;;;4.07;;
27706;SDS011;36332;51.384;0.040;2022-07-29T05:55:50;8.60;;;4.45;;
27706;SDS011;36332;51.384;0.040;2022-07-29T05:58:19;11.07;;;4.00;;
27706;SDS011;36332;51.384;0.040;2022-07-29T06:00:47;6.93;;;4.07;;
27706;SDS011;36332;51.384;0.040;2022-07-29T06:03:14;11.57;;;4.50;;
27706;SDS011;36332;51.384;0.040;2022-07-29T06:05:42;10.10;;;4.30;;
27706;SDS011;36332;51.384;0.040;2022-07-29T06:08:10;15.43;;;4.97;;
27706;SDS011;36332;51.384;0.040;2022-07-29T06:10:37;10.57;;;4.78;;
27706;SDS011;36332;51.384;0.040;2022-07-29T06:13:05;10.27;;;3.95;;
27706;SDS011;36332;51.384;0.040;2022-07-29T06:15:33;9.77;;;5.03;;
27706;SDS011;36332;51.384;0.040;2022-07-29T06:18:01;8.15;;;3.97;;
27706;SDS011;36332;51.384;0.040;2022-07-29T06:20:29;11.20;;;4.70;;
27706;SDS011;36332;51.384;0.040;2022-07-29T06:22:59;8.07;;;4.05;;
27706;SDS011;36332;51.384;0.040;2022-07-29T06:25:27;9.77;;;4.45;;
27706;SDS011;36332;51.384;0.040;2022-07-29T06:28:02;12.55;;;4.47;;
27706;SDS011;36332;51.384;0.040;2022-07-29T06:30:30;18.30;;;4.85;;
27706;SDS011;36332;51.384;0.040;2022-07-29T06:32:58;11.82;;;4.15;;
27706;SDS011;36332;51.384;0.040;2022-07-29T06:35:27;13.07;;;4.85;;
27706;SDS011;36332;51.384;0.040;2022-07-29T06:38:08;11.10;;;4.97;;
27706;SDS011;36332;51.384;0.040;2022-07-29T06:40:56;17.42;;;4.53;;
27706;SDS011;36332;51.384;0.040;2022-07-29T06:43:28;11.20;;;4.78;;
27706;SDS011;36332;51.384;0.040;2022-07-29T06:46:17;14.35;;;4.30;;
27706;SDS011;36332;51.384;0.040;2022-07-29T06:48:48;13.95;;;5.13;;
27706;SDS011;36332;51.384;0.040;2022-07-29T06:51:17;17.33;;;5.45;;
27706;SDS011;36332;51.384;0.040;2022-07-29T06:53:50;8.95;;;4.45;;
27706;SDS011;36332;51.384;0.040;2022-07-29T06:56:29;9.85;;;4.35;;
27706;SDS011;36332;51.384;0.040;2022-07-29T06:59:04;13.02;;;5.78;;
27706;SDS011;36332;51.384;0.040;2022-07-29T07:01:32;14.85;;;4.32;;
27706;SDS011;36332;51.384;0.040;2022-07-29T07:04:00;17.70;;;5.43;;
27706;SDS011;36332;51.384;0.040;2022-07-29T07:06:30;18.55;;;4.40;;
27706;SDS011;36332;51.384;0.040;2022-07-29T07:08:58;12.50;;;4.40;;
27706;SDS011;36332;51.384;0.040;2022-07-29T07:11:26;10.10;;;4.40;;
27706;SDS011;36332;51.384;0.040;2022-07-29T07:13:54;14.02;;;4.15;;
27706;SDS011;36332;51.384;0.040;2022-07-29T07:16:28;13.95;;;4.75;;
27706;SDS011;36332;51.384;0.040;2022-07-29T07:18:56;15.48;;;4.85;;
27706;SDS011;36332;51.384;0.040;2022-07-29T07:21:24;14.65;;;4.03;;
27706;SDS011;36332;51.384;0.040;2022-07-29T07:23:54;16.30;;;4.65;;
27706;SDS011;36332;51.384;0.040;2022-07-29T07:26:22;15.50;;;3.90;;
27706;SDS011;36332;51.384;0.040;2022-07-29T07:28:50;8.10;;;4.40;;
27706;SDS011;36332;51.384;0.040;2022-07-29T07:31:18;15.40;;;4.45;;
27706;SDS011;36332;51.384;0.040;2022-07-29T07:33:48;16.00;;;4.93;;
27706;SDS011;36332;51.384;0.040;2022-07-29T07:36:15;10.07;;;3.92;;
27706;SDS011;36332;51.384;0.040;2022-07-29T07:38:43;15.27;;;4.88;;
27706;SDS011;36332;51.384;0.040;2022-07-29T07:41:13;15.98;;;4.78;;
27706;SDS011;36332;51.384;0.040;2022-07-29T07:43:41;16.67;;;4.20;;
27706;SDS011;36332;51.384;0.040;2022-07-29T07:46:09;20.30;;;5.53;;
27706;SDS011;36332;51.384;0.040;2022-07-29T07:48:39;11.70;;;3.90;;
27706;SDS011;36332;51.384;0.040;2022-07-29T07:51:07;19.20;;;4.93;;
27706;SDS011;36332;51.384;0.040;2022-07-29T07:53:35;9.18;;;3.90;;
27706;SDS011;36332;51.384;0.040;2022-07-29T07:56:03;15.57;;;3.78;;
27706;SDS011;36332;51.384;0.040;2022-07-29T07:58:37;12.50;;;4.30;;
27706;SDS011;36332;51.384;0.040;2022-07-29T08:01:06;17.75;;;4.63;;
27706;SDS011;36332;51.384;0.040;2022-07-29T08:03:34;9.68;;;3.80;;
27706;SDS011;36332;51.384;0.040;2022-07-29T08:06:03;15.80;;;4.30;;
27706;SDS011;36332;51.384;0.040;2022-07-29T08:08:32;10.73;;;3.42;;
27706;SDS011;36332;51.384;0.040;2022-07-29T08:11:00;14.93;;;3.90;;
27706;SDS011;36332;51.384;0.040;2022-07-29T08:13:36;15.05;;;3.78;;
27706;SDS011;36332;51.384;0.040;2022-07-29T08:16:04;8.10;;;3.35;;
27706;SDS011;36332;51.384;0.040;2022-07-29T08:18:39;7.95;;;2.97;;
27706;SDS011;36332;51.384;0.040;2022-07-29T08:21:08;11.80;;;3.58;;
27706;SDS011;36332;51.384;0.040;2022-07-29T08:23:41;12.40;;;3.30;;
27706;SDS011;36332;51.384;0.040;2022-07-29T08:26:27;12.25;;;3.22;;
27706;SDS011;36332;51.384;0.040;2022-07-29T08:28:55;7.30;;;2.90;;
27706;SDS011;36332;51.384;0.040;2022-07-29T08:31:23;5.47;;;2.85;;
27706;SDS011;36332;51.384;0.040;2022-07-29T08:33:51;12.88;;;3.55;;
27706;SDS011;36332;51.384;0.040;2022-07-29T08:36:18;8.48;;;2.45;;
27706;SDS011;36332;51.384;0.040;2022-07-29T08:38:48;11.80;;;2.60;;
27706;SDS011;36332;51.384;0.040;2022-07-29T08:41:17;14.15;;;3.08;;
27706;SDS011;36332;51.384;0.040;2022-07-29T08:43:46;10.50;;;3.08;;
27706;SDS011;36332;51.384;0.040;2022-07-29T08:46:15;5.63;;;2.50;;
27706;SDS011;36332;51.384;0.040;2022-07-29T08:48:44;9.15;;;2.78;;
27706;SDS011;36332;51.384;0.040;2022-07-29T08:51:13;11.65;;;2.30;;
27706;SDS011;36332;51.384;0.040;2022-07-29T08:53:46;14.02;;;3.05;;
27706;SDS011;36332;51.384;0.040;2022-07-29T08:56:18;13.32;;;2.60;;
27706;SDS011;36332;51.384;0.040;2022-07-29T08:58:53;10.10;;;2.30;;
27706;SDS011;36332;51.384;0.040;2022-07-29T09:01:24;8.43;;;1.88;;
27706;SDS011;36332;51.384;0.040;2022-07-29T09:04:04;7.80;;;2.10;;
27706;SDS011;36332;51.384;0.040;2022-07-29T09:06:37;11.32;;;2.50;;
27706;SDS011;36332;51.384;0.040;2022-07-29T09:09:08;6.88;;;2.33;;
27706;SDS011;36332;51.384;0.040;2022-07-29T09:11:36;7.80;;;2.17;;
27706;SDS011;36332;51.384;0.040;2022-07-29T09:14:04;7.40;;;1.92;;
27706;SDS011;36332;51.384;0.040;2022-07-29T09:19:24;8.52;;;1.83;;
27706;SDS011;36332;51.384;0.040;2022-07-29T09:21:54;8.32;;;2.45;;
27706;SDS011;36332;51.384;0.040;2022-07-29T09:24:27;11.73;;;2.65;;
27706;SDS011;36332;51.384;0.040;2022-07-29T09:27:12;11.55;;;3.03;;
27706;SDS011;36332;51.384;0.040;2022-07-29T09:30:03;6.47;;;1.65;;
27706;SDS011;36332;51.384;0.040;2022-07-29T09:32:34;11.82;;;2.78;;
27706;SDS011;36332;51.384;0.040;2022-07-29T09:35:22;9.65;;;2.80;;
27706;SDS011;36332;51.384;0.040;2022-07-29T09:37:51;7.88;;;2.42;;
27706;SDS011;36332;51.384;0.040;2022-07-29T09:40:24;7.95;;;2.22;;
27706;SDS011;36332;51.384;0.040;2022-07-29T09:42:54;8.10;;;2.22;;
27706;SDS011;36332;51.384;0.040;2022-07-29T09:45:32;10.30;;;2.10;;
27706;SDS011;36332;51.384;0.040;2022-07-29T09:48:13;10.23;;;2.53;;
27706;SDS011;36332;51.384;0.040;2022-07-29T09:50:43;9.75;;;2.22;;
27706;SDS011;36332;51.384;0.040;2022-07-29T09:53:11;10.15;;;2.40;;
27706;SDS011;36332;51.384;0.040;2022-07-29T09:55:56;8.43;;;2.38;;
27706;SDS011;36332;51.384;0.040;2022-07-29T09:58:24;14.43;;;2.78;;
27706;SDS011;36332;51.384;0.040;2022-07-29T10:00:52;5.28;;;2.10;;
27706;SDS011;36332;51.384;0.040;2022-07-29T10:03:21;9.68;;;2.63;;
27706;SDS011;36332;51.384;0.040;2022-07-29T10:06:11;7.43;;;1.98;;
27706;SDS011;36332;51.384;0.040;2022-07-29T10:08:41;9.65;;;2.60;;
27706;SDS011;36332;51.384;0.040;2022-07-29T10:11:09;7.40;;;2.17;;
27706;SDS011;36332;51.384;0.040;2022-07-29T10:13:40;6.65;;;2.03;;
27706;SDS011;36332;51.384;0.040;2022-07-29T10:16:09;10.95;;;2.70;;
27706;SDS011;36332;51.384;0.040;2022-07-29T10:18:40;6.55;;;2.22;;
27706;SDS011;36332;51.384;0.040;2022-07-29T10:21:09;8.52;;;2.55;;
27706;SDS011;36332;51.384;0.040;2022-07-29T10:23:59;8.40;;;2.65;;
27706;SDS011;36332;51.384;0.040;2022-07-29T10:26:28;8.85;;;2.40;;
27706;SDS011;36332;51.384;0.040;2022-07-29T10:28:57;4.93;;;2.20;;
27706;SDS011;36332;51.384;0.040;2022-07-29T10:31:29;9.77;;;2.60;;
27706;SDS011;36332;51.384;0.040;2022-07-29T10:37:24;10.95;;;2.15;;
27706;SDS011;36332;51.384;0.040;2022-07-29T10:40:06;7.70;;;2.60;;
27706;SDS011;36332;51.384;0.040;2022-07-29T10:43:16;6.93;;;2.05;;
27706;SDS011;36332;51.384;0.040;2022-07-29T10:45:55;9.00;;;2.40;;
27706;SDS011;36332;51.384;0.040;2022-07-29T10:48:25;7.75;;;2.50;;
27706;SDS011;36332;51.384;0.040;2022-07-29T10:51:03;8.25;;;2.20;;
27706;SDS011;36332;51.384;0.040;2022-07-29T10:53:46;11.65;;;2.75;;
27706;SDS011;36332;51.384;0.040;2022-07-29T11:01:47;7.70;;;2.25;;
27706;SDS011;36332;51.384;0.040;2022-07-29T11:07:14;7.82;;;1.92;;
27706;SDS011;36332;51.384;0.040;2022-07-29T11:09:43;5.15;;;2.00;;
27706;SDS011;36332;51.384;0.040;2022-07-29T11:15:06;4.68;;;1.70;;
27706;SDS011;36332;51.384;0.040;2022-07-29T11:23:20;6.35;;;1.75;;
27706;SDS011;36332;51.384;0.040;2022-07-29T11:34:15;9.52;;;3.72;;
27706;SDS011;36332;51.384;0.040;2022-07-29T11:42:37;9.85;;;1.60;;
27706;SDS011;36332;51.384;0.040;2022-07-29T11:45:14;7.03;;;1.95;;
27706;SDS011;36332;51.384;0.040;2022-07-29T11:48:05;7.15;;;2.10;;
27706;SDS011;36332;51.384;0.040;2022-07-29T11:50:52;12.38;;;1.92;;
27706;SDS011;36332;51.384;0.040;2022-07-29T11:53:20;4.75;;;1.83;;
27706;SDS011;36332;51.384;0.040;2022-07-29T11:55:48;10.32;;;1.83;;
27706;SDS011;36332;51.384;0.040;2022-07-29T11:58:24;5.75;;;1.90;;
27706;SDS011;36332;51.384;0.040;2022-07-29T12:00:54;7.10;;;1.65;;
27706;SDS011;36332;51.384;0.040;2022-07-29T12:03:24;3.95;;;1.98;;
27706;SDS011;36332;51.384;0.040;2022-07-29T12:06:10;5.45;;;1.90;;
27706;SDS011;36332;51.384;0.040;2022-07-29T12:09:08;11.52;;;1.83;;
27706;SDS011;36332;51.384;0.040;2022-07-29T12:11:40;5.80;;;1.73;;
27706;SDS011;36332;51.384;0.040;2022-07-29T12:17:27;7.72;;;2.17;;
27706;SDS011;36332;51.384;0.040;2022-07-29T12:20:05;7.55;;;1.88;;
27706;SDS011;36332;51.384;0.040;2022-07-29T12:22:35;9.43;;;2.30;;
27706;SDS011;36332;51.384;0.040;2022-07-29T12:25:06;6.72;;;2.08;;
27706;SDS011;36332;51.384;0.040;2022-07-29T12:28:00;8.25;;;1.88;;
27706;SDS011;36332;51.384;0.040;2022-07-29T12:30:39;7.00;;;1.70;;
27706;SDS011;36332;51.384;0.040;2022-07-29T12:35:56;7.45;;;1.70;;
27706;SDS011;36332;51.384;0.040;2022-07-29T12:38:34;9.18;;;2.47;;
27706;SDS011;36332;51.384;0.040;2022-07-29T12:41:02;8.48;;;1.70;;
27706;SDS011;36332;51.384;0.040;2022-07-29T12:43:31;7.40;;;2.05;;
27706;SDS011;36332;51.384;0.040;2022-07-29T12:46:10;7.38;;;2.00;;
27706;SDS011;36332;51.384;0.040;2022-07-29T12:48:41;6.35;;;2.33;;
27706;SDS011;36332;51.384;0.040;2022-07-29T12:51:10;8.18;;;1.67;;
27706;SDS011;36332;51.384;0.040;2022-07-29T12:53:41;7.53;;;2.08;;
27706;SDS011;36332;51.384;0.040;2022-07-29T12:56:14;6.22;;;1.88;;
27706;SDS011;36332;51.384;0.040;2022-07-29T12:59:14;6.63;;;2.08;;
27706;SDS011;36332;51.384;0.040;2022-07-29T13:01:42;3.28;;;1.52;;
27706;SDS011;36332;51.384;0.040;2022-07-29T13:04:10;6.63;;;1.75;;
27706;SDS011;36332;51.384;0.040;2022-07-29T13:06:41;11.50;;;1.60;;
27706;SDS011;36332;51.384;0.040;2022-07-29T13:11:45;6.57;;;1.60;;
27706;SDS011;36332;51.384;0.040;2022-07-29T13:14:31;6.93;;;1.70;;
27706;SDS011;36332;51.384;0.040;2022-07-29T13:22:08;6.47;;;1.83;;
27706;SDS011;36332;51.384;0.040;2022-07-29T13:27:26;5.93;;;1.90;;
27706;SDS011;36332;51.384;0.040;2022-07-29T13:30:02;4.22;;;1.80;;
27706;SDS011;36332;51.384;0.040;2022-07-29T13:32:33;5.93;;;1.90;;
27706;SDS011;36332;51.384;0.040;2022-07-29T13:35:05;4.75;;;1.45;;
27706;SDS011;36332;51.384;0.040;2022-07-29T13:37:34;2.13;;;1.52;;
27706;SDS011;36332;51.384;0.040;2022-07-29T13:40:06;7.85;;;1.75;;
27706;SDS011;36332;51.384;0.040;2022-07-29T13:42:35;5.72;;;2.08;;
27706;SDS011;36332;51.384;0.040;2022-07-29T13:45:03;5.95;;;1.48;;
27706;SDS011;36332;51.384;0.040;2022-07-29T13:47:32;5.97;;;1.67;;
27706;SDS011;36332;51.384;0.040;2022-07-29T13:50:02;6.40;;;1.73;;
27706;SDS011;36332;51.384;0.040;2022-07-29T13:52:33;6.18;;;2.10;;
27706;SDS011;36332;51.384;0.040;2022-07-29T13:55:02;2.90;;;1.50;;
27706;SDS011;36332;51.384;0.040;2022-07-29T13:57:30;6.03;;;1.33;;
27706;SDS011;36332;51.384;0.040;2022-07-29T13:59:58;6.53;;;1.25;;
27706;SDS011;36332;51.384;0.040;2022-07-29T14:02:26;4.78;;;1.30;;
27706;SDS011;36332;51.384;0.040;2022-07-29T14:04:54;4.85;;;1.73;;
27706;SDS011;36332;51.384;0.040;2022-07-29T14:07:22;4.35;;;1.17;;
27706;SDS011;36332;51.384;0.040;2022-07-29T14:09:50;6.68;;;1.77;;
27706;SDS011;36332;51.384;0.040;2022-07-29T14:12:18;5.80;;;1.50;;
27706;SDS011;36332;51.384;0.040;2022-07-29T14:14:49;5.80;;;1.50;;
27706;SDS011;36332;51.384;0.040;2022-07-29T14:17:18;3.03;;;1.48;;
27706;SDS011;36332;51.384;0.040;2022-07-29T14:19:47;4.20;;;1.63;;
27706;SDS011;36332;51.384;0.040;2022-07-29T14:22:14;3.78;;;1.50;;
27706;SDS011;36332;51.384;0.040;2022-07-29T14:24:46;5.78;;;1.27;;
27706;SDS011;36332;51.384;0.040;2022-07-29T14:27:15;2.50;;;1.15;;
27706;SDS011;36332;51.384;0.040;2022-07-29T14:29:42;8.52;;;1.38;;
27706;SDS011;36332;51.384;0.040;2022-07-29T14:32:16;11.88;;;1.92;;
27706;SDS011;36332;51.384;0.040;2022-07-29T14:34:44;5.50;;;1.45;;
27706;SDS011;36332;51.384;0.040;2022-07-29T14:37:14;4.25;;;1.50;;
27706;SDS011;36332;51.384;0.040;2022-07-29T14:39:42;3.15;;;1.45;;
27706;SDS011;36332;51.384;0.040;2022-07-29T14:42:10;5.15;;;1.45;;
27706;SDS011;36332;51.384;0.040;2022-07-29T14:44:43;2.80;;;1.60;;
27706;SDS011;36332;51.384;0.040;2022-07-29T14:47:12;6.20;;;1.63;;
27706;SDS011;36332;51.384;0.040;2022-07-29T14:49:40;2.35;;;1.30;;
27706;SDS011;36332;51.384;0.040;2022-07-29T14:52:08;6.45;;;1.48;;
27706;SDS011;36332;51.384;0.040;2022-07-29T14:54:35;4.40;;;1.27;;
27706;SDS011;36332;51.384;0.040;2022-07-29T14:57:03;9.13;;;1.40;;
27706;SDS011;36332;51.384;0.040;2022-07-29T14:59:30;6.72;;;1.70;;
27706;SDS011;36332;51.384;0.040;2022-07-29T15:01:58;5.93;;;1.70;;
27706;SDS011;36332;51.384;0.040;2022-07-29T15:04:26;5.40;;;1.65;;
27706;SDS011;36332;51.384;0.040;2022-07-29T15:06:54;5.95;;;1.67;;
27706;SDS011;36332;51.384;0.040;2022-07-29T15:09:22;4.57;;;1.30;;
27706;SDS011;36332;51.384;0.040;2022-07-29T15:11:49;6.90;;;1.63;;
27706;SDS011;36332;51.384;0.040;2022-07-29T15:14:17;7.47;;;1.25;;
27706;SDS011;36332;51.384;0.040;2022-07-29T15:16:45;5.68;;;1.90;;
27706;SDS011;36332;51.384;0.040;2022-07-29T15:19:14;5.20;;;1.88;;
27706;SDS011;36332;51.384;0.040;2022-07-29T15:21:42;5.03;;;1.52;;
27706;SDS011;36332;51.384;0.040;2022-07-29T15:24:15;8.18;;;1.67;;
27706;SDS011;36332;51.384;0.040;2022-07-29T15:26:44;8.85;;;1.35;;
27706;SDS011;36332;51.384;0.040;2022-07-29T15:29:16;4.93;;;1.20;;
27706;SDS011;36332;51.384;0.040;2022-07-29T15:31:44;15.68;;;1.80;;
27706;SDS011;36332;51.384;0.040;2022-07-29T15:34:12;5.75;;;1.30;;
27706;SDS011;36332;51.384;0.040;2022-07-29T15:36:39;9.57;;;2.17;;
27706;SDS011;36332;51.384;0.040;2022-07-29T15:39:19;7.60;;;1.77;;
27706;SDS011;36332;51.384;0.040;2022-07-29T15:41:47;4.30;;;2.28;;
27706;SDS011;36332;51.384;0.040;2022-07-29T15:44:15;3.40;;;1.60;;
27706;SDS011;36332;51.384;0.040;2022-07-29T15:46:45;4.75;;;1.70;;
27706;SDS011;36332;51.384;0.040;2022-07-29T15:49:36;11.73;;;1.83;;
27706;SDS011;36332;51.384;0.040;2022-07-29T15:52:18;3.95;;;1.77;;
27706;SDS011;36332;51.384;0.040;2022-07-29T15:54:53;4.90;;;1.23;;
27706;SDS011;36332;51.384;0.040;2022-07-29T15:57:28;10.23;;;2.15;;
27706;SDS011;36332;51.384;0.040;2022-07-29T15:59:58;9.18;;;1.95;;
27706;SDS011;36332;51.384;0.040;2022-07-29T16:02:34;4.65;;;1.55;;
27706;SDS011;36332;51.384;0.040;2022-07-29T16:05:02;9.43;;;1.60;;
27706;SDS011;36332;51.384;0.040;2022-07-29T16:07:35;5.18;;;1.67;;
27706;SDS011;36332;51.384;0.040;2022-07-29T16:10:05;6.47;;;1.67;;
27706;SDS011;36332;51.384;0.040;2022-07-29T16:12:33;2.95;;;1.40;;
27706;SDS011;36332;51.384;0.040;2022-07-29T16:15:02;5.35;;;1.85;;
27706;SDS011;36332;51.384;0.040;2022-07-29T16:17:37;7.90;;;2.03;;
27706;SDS011;36332;51.384;0.040;2022-07-29T16:20:05;5.88;;;1.75;;
27706;SDS011;36332;51.384;0.040;2022-07-29T16:22:34;5.70;;;1.95;;
27706;SDS011;36332;51.384;0.040;2022-07-29T16:25:02;3.75;;;1.75;;
27706;SDS011;36332;51.384;0.040;2022-07-29T16:27:30;10.68;;;1.70;;